Time;durP1;ratioP1;P1;durP2;ratioP2;P2;SDS_P1;SDS_P2;PMS_P1;PMS_P2;Temp;Humidity;BMP_temperature;BMP_pressure;BME280_temperature;BME280_humidity;BME280_pressure;Samples;Min_cycle;Max_cycle;Signal;HPM_P1;HPM_P2
2024/01/06 00:01:13;;;;;;;32.78;15.08;;;;;;;-3.00;83.87;100328.72;1727945;83;21037;-70
2024/01/06 00:03:42;;;;;;;34.30;15.25;;;;;;;-3.00;83.92;100327.38;1727921;83;21046;-70
2024/01/06 00:06:14;;;;;;;37.30;15.95;;;;;;;-3.02;83.95;100331.99;1728079;83;21085;-70
2024/01/06 00:08:43;;;;;;;37.95;16.15;;;;;;;-3.03;84.04;100340.15;1728122;83;21021;-70
2024/01/06 00:11:12;;;;;;;35.73;16.30;;;;;;;-3.06;83.97;100343.91;1728085;83;21038;-70
2024/01/06 00:13:41;;;;;;;34.05;15.93;;;;;;;-3.09;84.03;100349.98;1727983;83;21096;-69
2024/01/06 00:16:09;;;;;;;42.35;15.78;;;;;;;-3.13;84.07;100345.33;1727961;83;21116;-72
2024/01/06 00:18:38;;;;;;;34.35;16.05;;;;;;;-3.17;84.04;100358.58;1728219;83;21014;-70
2024/01/06 00:21:06;;;;;;;33.60;15.50;;;;;;;-3.19;84.24;100353.81;1728060;83;21061;-69
2024/01/06 00:23:35;;;;;;;33.05;15.75;;;;;;;-3.22;84.33;100347.34;1727968;83;21461;-70
2024/01/06 00:26:04;;;;;;;32.10;14.80;;;;;;;-3.28;84.42;100345.07;1727991;83;21017;-70
2024/01/06 00:28:33;;;;;;;34.58;14.90;;;;;;;-3.30;84.72;100353.70;1705581;83;21074;-70
2024/01/06 00:31:01;;;;;;;30.72;14.47;;;;;;;-3.33;84.93;100348.56;1727921;83;21081;-69
2024/01/06 00:33:31;;;;;;;34.38;15.68;;;;;;;-3.32;85.19;100361.84;1721692;83;21073;-70
2024/01/06 00:36:00;;;;;;;32.80;16.00;;;;;;;-3.28;85.52;100364.67;1719416;83;21126;-70
2024/01/06 00:38:30;;;;;;;35.40;15.63;;;;;;;-3.19;85.79;100367.20;1719643;83;21515;-71
2024/01/06 00:41:00;;;;;;;35.68;15.83;;;;;;;-3.14;85.88;100370.41;1719469;83;21479;-70
2024/01/06 00:43:29;;;;;;;36.75;15.85;;;;;;;-3.12;85.91;100375.17;1719505;83;21042;-70
2024/01/06 00:45:58;;;;;;;33.67;14.93;;;;;;;-3.06;86.15;100379.23;1719357;83;21066;-70
2024/01/06 00:48:27;;;;;;;32.60;15.83;;;;;;;-3.01;86.39;100384.62;1719445;83;21559;-71
2024/01/06 00:50:56;;;;;;;31.93;15.53;;;;;;;-2.95;86.48;100382.84;1719497;83;21018;-70
2024/01/06 00:53:26;;;;;;;29.27;15.05;;;;;;;-2.89;86.43;100396.28;1719474;83;21062;-70
2024/01/06 00:55:54;;;;;;;31.85;15.18;;;;;;;-2.92;86.09;100397.36;1693410;83;21054;-69
2024/01/06 00:58:23;;;;;;;32.93;14.38;;;;;;;-2.92;86.06;100389.31;1719645;83;21462;-70
2024/01/06 01:00:51;;;;;;;30.62;14.00;;;;;;;-2.88;86.13;100389.47;1719643;83;21077;-70
2024/01/06 01:03:21;;;;;;;32.55;13.93;;;;;;;-2.83;86.11;100388.27;1719469;83;21056;-71
2024/01/06 01:05:49;;;;;;;28.90;13.93;;;;;;;-2.81;86.01;100375.61;1719575;83;21061;-70
2024/01/06 01:08:19;;;;;;;30.52;13.72;;;;;;;-2.80;85.96;100380.86;1719502;83;21038;-69
2024/01/06 01:10:47;;;;;;;29.12;14.20;;;;;;;-2.76;86.00;100370.76;1719529;83;21494;-70
2024/01/06 01:13:16;;;;;;;25.30;12.05;;;;;;;-2.74;85.97;100358.09;1719433;83;21003;-69
2024/01/06 01:15:47;;;;;;;26.82;12.85;;;;;;;-2.71;85.99;100348.48;1719594;83;21054;-69
2024/01/06 01:18:15;;;;;;;25.23;12.13;;;;;;;-2.67;85.85;100345.94;1719608;83;21038;-70
2024/01/06 01:20:45;;;;;;;22.22;9.93;;;;;;;-2.67;85.72;100345.45;1719395;83;21071;-70
2024/01/06 01:23:14;;;;;;;20.25;10.43;;;;;;;-2.63;85.56;100331.33;1701763;84;21081;-70
2024/01/06 01:25:43;;;;;;;20.30;10.00;;;;;;;-2.56;85.54;100335.30;1676172;84;21509;-70
2024/01/06 01:28:13;;;;;;;24.20;10.78;;;;;;;-2.50;85.17;100331.29;1719416;83;21079;-71
2024/01/06 01:30:42;;;;;;;17.55;9.23;;;;;;;-2.49;84.87;100333.86;1719340;83;21046;-71
2024/01/06 01:33:11;;;;;;;22.27;10.75;;;;;;;-2.45;84.50;100326.43;1676130;84;21065;-70
2024/01/06 01:35:40;;;;;;;22.02;10.78;;;;;;;-2.43;84.22;100321.80;1701505;84;21034;-70
2024/01/06 01:38:08;;;;;;;25.82;12.23;;;;;;;-2.42;83.83;100310.11;1701713;84;21069;-69
2024/01/06 01:40:37;;;;;;;23.38;11.10;;;;;;;-2.41;83.78;100301.08;1701659;84;21539;-70
2024/01/06 01:43:06;;;;;;;24.87;10.78;;;;;;;-2.38;83.84;100300.84;1701844;84;21053;-70
2024/01/06 01:45:35;;;;;;;19.90;9.65;;;;;;;-2.37;83.78;100295.84;1689402;85;21102;-70
2024/01/06 01:48:05;;;;;;;23.20;10.70;;;;;;;-2.36;83.55;100294.39;1701670;84;21049;-69
2024/01/06 01:50:34;;;;;;;21.10;10.13;;;;;;;-2.36;83.51;100297.07;1689479;85;21122;-70
2024/01/06 01:53:02;;;;;;;28.95;11.57;;;;;;;-2.30;83.57;100295.26;1701751;84;21083;-70
2024/01/06 01:55:31;;;;;;;27.25;10.60;;;;;;;-2.30;83.40;100307.82;1689313;85;21085;-71
2024/01/06 01:57:59;;;;;;;20.68;9.80;;;;;;;-2.29;83.53;100298.31;1701749;84;21173;-70
2024/01/06 02:00:28;;;;;;;20.20;9.65;;;;;;;-2.27;83.58;100291.48;1689422;84;21072;-69
2024/01/06 02:02:57;;;;;;;18.75;9.15;;;;;;;-2.25;83.24;100290.39;1701946;84;21414;-70
2024/01/06 02:05:25;;;;;;;15.20;8.30;;;;;;;-2.24;83.10;100298.81;1689301;85;21076;-69
2024/01/06 02:07:54;;;;;;;15.50;6.97;;;;;;;-2.22;82.82;100305.88;1701706;83;21462;-69
2024/01/06 02:10:23;;;;;;;14.33;7.30;;;;;;;-2.19;82.62;100302.97;1689345;84;21087;-70
2024/01/06 02:12:52;;;;;;;13.20;6.72;;;;;;;-2.20;82.37;100299.91;1676402;84;21494;-70
2024/01/06 02:15:21;;;;;;;17.20;8.08;;;;;;;-2.19;82.28;100301.63;1701820;84;21074;-68
2024/01/06 02:17:50;;;;;;;14.87;7.67;;;;;;;-2.18;82.22;100288.09;1676128;84;21048;-71
2024/01/06 02:20:19;;;;;;;18.20;7.80;;;;;;;-2.17;82.01;100283.58;1689303;84;21500;-68
2024/01/06 02:22:48;;;;;;;15.72;7.70;;;;;;;-2.16;81.91;100283.45;1701781;84;21061;-70
2024/01/06 02:25:16;;;;;;;15.75;7.22;;;;;;;-2.14;81.83;100284.67;1689491;85;21450;-70
2024/01/06 02:27:45;;;;;;;12.95;7.35;;;;;;;-2.13;81.78;100276.98;1701831;83;21050;-69
2024/01/06 02:30:14;;;;;;;12.75;7.00;;;;;;;-2.11;81.82;100284.44;1689347;85;21020;-70
2024/01/06 02:32:42;;;;;;;17.50;7.97;;;;;;;-2.12;81.64;100282.23;1701902;84;21046;-71
2024/01/06 02:35:11;;;;;;;13.53;7.35;;;;;;;-2.12;81.45;100276.87;1702178;84;21081;-71
2024/01/06 02:37:40;;;;;;;16.62;7.33;;;;;;;-2.11;81.50;100265.64;1702096;84;21503;-70
2024/01/06 02:40:10;;;;;;;13.55;7.15;;;;;;;-2.11;81.46;100266.50;1702347;84;21085;-69
2024/01/06 02:42:38;;;;;;;14.20;6.08;;;;;;;-2.09;81.46;100262.36;1702520;84;21065;-69
2024/01/06 02:45:09;;;;;;;12.37;6.28;;;;;;;-2.07;81.35;100253.69;1702248;84;21453;-69
2024/01/06 02:47:38;;;;;;;12.73;6.60;;;;;;;-2.07;81.15;100254.55;1702367;84;21079;-69
2024/01/06 02:50:08;;;;;;;14.90;6.45;;;;;;;-2.06;81.26;100260.28;1702245;84;21042;-70
2024/01/06 02:52:37;;;;;;;11.57;6.50;;;;;;;-2.05;80.99;100246.38;1702384;84;21034;-71
2024/01/06 02:55:07;;;;;;;14.20;6.35;;;;;;;-2.05;80.94;100247.72;1702219;84;21105;-70
2024/01/06 02:57:35;;;;;;;10.75;6.30;;;;;;;-2.03;81.07;100257.84;1702191;84;21089;-70
2024/01/06 03:00:06;;;;;;;11.55;5.50;;;;;;;-2.02;80.90;100252.36;1702281;84;21519;-70
2024/01/06 03:02:37;;;;;;;11.75;5.97;;;;;;;-1.99;80.86;100257.97;1702421;83;21049;-71
2024/01/06 03:05:07;;;;;;;11.63;6.22;;;;;;;-1.99;80.82;100250.77;1702522;83;21061;-70
2024/01/06 03:07:36;;;;;;;13.15;5.72;;;;;;;-1.95;80.77;100264.35;1702171;84;21042;-69
2024/01/06 03:10:05;;;;;;;11.10;5.87;;;;;;;-1.93;80.70;100261.55;1678429;84;21030;-72
2024/01/06 03:12:34;;;;;;;14.47;6.60;;;;;;;-1.93;80.70;100259.71;1702231;84;21010;-70
2024/01/06 03:15:04;;;;;;;13.40;6.55;;;;;;;-1.89;80.76;100252.27;1702400;84;21089;-69
2024/01/06 03:17:32;;;;;;;12.98;6.53;;;;;;;-1.88;80.50;100246.41;1702195;84;21095;-71
2024/01/06 03:20:01;;;;;;;13.28;6.47;;;;;;;-1.87;80.50;100239.58;1702242;84;21063;-71
2024/01/06 03:22:30;;;;;;;12.82;6.15;;;;;;;-1.84;80.36;100242.02;1702335;84;21046;-71
2024/01/06 03:24:58;;;;;;;15.83;6.83;;;;;;;-1.82;80.31;100229.32;1702220;84;21049;-69
2024/01/06 03:27:27;;;;;;;14.38;6.35;;;;;;;-1.79;80.24;100222.36;1702223;84;21030;-71
2024/01/06 03:29:55;;;;;;;14.68;5.97;;;;;;;-1.77;80.09;100226.27;1702128;84;21547;-70
2024/01/06 03:32:24;;;;;;;12.45;5.58;;;;;;;-1.76;80.05;100225.28;1702180;84;21057;-70
2024/01/06 03:34:53;;;;;;;11.70;5.40;;;;;;;-1.74;79.69;100239.45;1702145;84;21085;-70
2024/01/06 03:37:22;;;;;;;10.82;5.60;;;;;;;-1.73;79.62;100242.01;1702425;84;21065;-69
2024/01/06 03:39:50;;;;;;;13.28;6.12;;;;;;;-1.71;79.59;100234.68;1702096;84;21010;-70
2024/01/06 03:42:19;;;;;;;15.80;5.53;;;;;;;-1.70;79.31;100224.80;1702282;84;21090;-72
2024/01/06 03:44:47;;;;;;;10.85;5.47;;;;;;;-1.71;79.20;100242.73;1702316;83;21042;-69
2024/01/06 03:47:16;;;;;;;9.45;5.12;;;;;;;-1.73;78.93;100233.95;1702457;84;21045;-70
2024/01/06 03:49:44;;;;;;;10.30;5.20;;;;;;;-1.73;79.19;100226.38;1702140;84;21077;-71
2024/01/06 03:52:13;;;;;;;13.48;5.45;;;;;;;-1.71;79.16;100226.63;1702219;84;21045;-71
2024/01/06 03:54:43;;;;;;;10.20;5.90;;;;;;;-1.71;79.15;100226.63;1702220;84;21531;-70
2024/01/06 03:57:11;;;;;;;11.30;5.85;;;;;;;-1.70;79.33;100232.36;1702167;83;21520;-69
2024/01/06 03:59:40;;;;;;;13.65;5.55;;;;;;;-1.69;79.38;100236.76;1702174;84;21119;-70
2024/01/06 04:02:09;;;;;;;10.55;4.72;;;;;;;-1.67;79.19;100233.45;1702266;84;21490;-69
2024/01/06 04:04:37;;;;;;;9.73;4.40;;;;;;;-1.66;79.29;100237.00;1702381;84;21101;-71
2024/01/06 04:07:06;;;;;;;9.38;4.65;;;;;;;-1.68;78.98;100249.20;1702243;84;21058;-71
2024/01/06 04:09:35;;;;;;;8.93;4.33;;;;;;;-1.65;79.04;100252.98;1702238;84;21073;-71
2024/01/06 04:12:06;;;;;;;9.38;4.55;;;;;;;-1.63;79.20;100253.72;1702173;84;21042;-71
2024/01/06 04:14:35;;;;;;;8.73;4.65;;;;;;;-1.60;79.25;100253.95;1702320;84;21061;-70
2024/01/06 04:17:04;;;;;;;11.75;4.78;;;;;;;-1.57;79.31;100240.28;1702428;84;21022;-70
2024/01/06 04:19:33;;;;;;;8.68;4.22;;;;;;;-1.58;78.83;100229.17;1702479;84;21070;-71
2024/01/06 04:22:01;;;;;;;9.43;4.47;;;;;;;-1.60;78.80;100217.20;1702252;84;21078;-70
2024/01/06 04:24:30;;;;;;;9.10;4.30;;;;;;;-1.57;78.80;100201.82;1702171;84;21066;-70
2024/01/06 04:26:59;;;;;;;8.60;4.25;;;;;;;-1.60;78.31;100198.41;1678275;84;21482;-70
2024/01/06 04:29:28;;;;;;;7.45;3.65;;;;;;;-1.61;78.15;100201.22;1702271;84;21065;-72
2024/01/06 04:31:56;;;;;;;9.58;3.67;;;;;;;-1.62;77.85;100182.90;1702253;84;21046;-69
2024/01/06 04:34:26;;;;;;;9.45;3.83;;;;;;;-1.63;77.63;100207.20;1702197;84;21085;-70
2024/01/06 04:36:55;;;;;;;7.95;4.50;;;;;;;-1.64;77.35;100209.52;1702174;84;21505;-70
2024/01/06 04:39:24;;;;;;;8.43;3.67;;;;;;;-1.64;77.60;100214.41;1702298;84;21057;-71
2024/01/06 04:41:52;;;;;;;8.03;3.80;;;;;;;-1.63;77.61;100216.11;1702313;84;21057;-71
2024/01/06 04:44:22;;;;;;;7.85;4.03;;;;;;;-1.60;77.73;100240.05;1702168;84;21082;-71
2024/01/06 04:46:50;;;;;;;9.35;3.85;;;;;;;-1.60;77.57;100235.16;1702445;83;21066;-71
2024/01/06 04:49:19;;;;;;;8.83;4.33;;;;;;;-1.61;77.41;100236.98;1678531;84;21045;-71
2024/01/06 04:51:48;;;;;;;8.03;3.80;;;;;;;-1.62;77.45;100227.22;1678670;84;21089;-71
2024/01/06 04:54:17;;;;;;;6.40;3.50;;;;;;;-1.60;77.72;100227.95;1702348;84;21109;-70
2024/01/06 04:56:45;;;;;;;6.90;3.62;;;;;;;-1.57;77.88;100226.00;1702238;84;21001;-69
2024/01/06 04:59:14;;;;;;;6.90;3.72;;;;;;;-1.54;77.87;100223.06;1702327;84;21006;-69
2024/01/06 05:01:43;;;;;;;7.47;3.90;;;;;;;-1.54;77.69;100218.54;1702265;84;20994;-71
2024/01/06 05:04:11;;;;;;;7.33;3.98;;;;;;;-1.51;77.96;100210.72;1702129;84;21074;-71
2024/01/06 05:06:40;;;;;;;8.83;3.92;;;;;;;-1.49;77.84;100205.59;1702279;84;21026;-71
2024/01/06 05:09:10;;;;;;;7.15;3.67;;;;;;;-1.47;77.72;100213.52;1702115;84;21025;-69
2024/01/06 05:11:38;;;;;;;6.97;4.22;;;;;;;-1.47;77.35;100213.03;1702029;84;21102;-70
2024/01/06 05:14:07;;;;;;;8.70;4.30;;;;;;;-1.45;77.09;100226.34;1678593;84;21073;-70
2024/01/06 05:16:35;;;;;;;8.55;3.90;;;;;;;-1.44;77.18;100211.92;1702126;83;21057;-71
2024/01/06 05:19:04;;;;;;;7.60;4.92;;;;;;;-1.42;77.27;100211.31;1702159;84;21017;-69
2024/01/06 05:21:33;;;;;;;11.88;4.95;;;;;;;-1.44;76.96;100210.58;1702206;84;21049;-69
2024/01/06 05:24:01;;;;;;;9.13;4.28;;;;;;;-1.43;77.11;100209.11;1702294;84;21073;-70
2024/01/06 05:26:31;;;;;;;12.85;5.42;;;;;;;-1.43;76.96;100210.94;1702221;84;21041;-70
2024/01/06 05:28:59;;;;;;;8.83;4.12;;;;;;;-1.42;77.03;100202.76;1678633;83;21026;-70
2024/01/06 05:31:28;;;;;;;10.93;4.47;;;;;;;-1.42;76.97;100200.56;1702128;84;21034;-69
2024/01/06 05:33:56;;;;;;;6.35;3.72;;;;;;;-1.41;77.04;100207.64;1702072;82;21061;-70
2024/01/06 05:36:25;;;;;;;6.92;3.83;;;;;;;-1.41;77.19;100211.18;1701687;84;21010;-71
2024/01/06 05:38:54;;;;;;;7.95;3.40;;;;;;;-1.39;77.26;100210.56;1701853;84;21114;-70
2024/01/06 05:41:22;;;;;;;7.25;3.98;;;;;;;-1.36;77.54;100200.05;1701618;84;21070;-72
2024/01/06 05:43:51;;;;;;;6.97;3.80;;;;;;;-1.33;77.70;100210.55;1689150;84;21071;-71
2024/01/06 05:46:26;;;;;;;8.38;3.62;;;;;;;-1.32;77.70;100201.51;1701732;84;21030;-70
2024/01/06 05:48:55;;;;;;;9.48;4.03;;;;;;;-1.32;77.65;100201.02;1689209;84;21048;-71
2024/01/06 05:51:25;;;;;;;7.85;4.12;;;;;;;-1.32;77.42;100182.70;1701615;84;21097;-70
2024/01/06 05:53:54;;;;;;;7.70;3.75;;;;;;;-1.30;77.57;100182.97;1689151;84;21128;-71
2024/01/06 05:56:25;;;;;;;7.25;3.75;;;;;;;-1.30;77.42;100167.33;1701858;84;21077;-70
2024/01/06 05:58:53;;;;;;;8.33;3.70;;;;;;;-1.32;77.14;100169.26;1689176;85;21056;-71
2024/01/06 06:01:22;;;;;;;8.60;4.00;;;;;;;-1.34;77.15;100160.47;1701733;84;21102;-71
2024/01/06 06:03:52;;;;;;;7.58;3.70;;;;;;;-1.32;77.45;100170.61;1689330;85;21104;-71
2024/01/06 06:06:21;;;;;;;9.75;3.50;;;;;;;-1.31;77.46;100173.66;1701815;84;21113;-71
2024/01/06 06:08:50;;;;;;;6.25;3.17;;;;;;;-1.33;77.38;100175.13;1689601;85;21044;-70
2024/01/06 06:11:20;;;;;;;6.17;3.30;;;;;;;-1.30;77.55;100167.33;1701957;84;21038;-69
2024/01/06 06:13:48;;;;;;;6.40;3.58;;;;;;;-1.29;77.80;100167.70;1689246;85;21048;-70
2024/01/06 06:16:18;;;;;;;6.72;3.70;;;;;;;-1.26;77.83;100155.34;1676406;84;21014;-71
2024/01/06 06:18:47;;;;;;;8.80;4.03;;;;;;;-1.25;77.69;100137.38;1689353;84;21092;-71
2024/01/06 06:21:16;;;;;;;10.72;4.60;;;;;;;-1.25;77.71;100127.48;1701719;84;21041;-70
2024/01/06 06:23:44;;;;;;;8.10;3.72;;;;;;;-1.25;77.48;100127.98;1689304;85;21441;-70
2024/01/06 06:26:13;;;;;;;10.15;3.98;;;;;;;-1.27;77.59;100132.14;1701874;84;21002;-70
2024/01/06 06:28:43;;;;;;;7.30;3.95;;;;;;;-1.28;77.53;100122.37;1689287;84;21495;-70
2024/01/06 06:31:12;;;;;;;7.22;4.55;;;;;;;-1.29;77.54;100127.38;1701781;84;21125;-70
2024/01/06 06:33:41;;;;;;;9.75;5.03;;;;;;;-1.26;77.90;100125.78;1689112;85;21520;-70
2024/01/06 06:36:12;;;;;;;21.85;6.12;;;;;;;-1.26;77.84;100128.47;1701693;84;21062;-72
2024/01/06 06:38:41;;;;;;;10.68;5.00;;;;;;;-1.24;77.71;100129.19;1689297;85;21047;-71
2024/01/06 06:41:11;;;;;;;10.35;4.65;;;;;;;-1.24;77.59;100135.91;1701971;84;21069;-70
2024/01/06 06:43:40;;;;;;;8.75;4.28;;;;;;;-1.24;77.46;100123.81;1689353;85;21052;-69
2024/01/06 06:46:09;;;;;;;7.65;4.12;;;;;;;-1.24;77.64;100117.59;1698165;84;21073;-71
2024/01/06 06:48:40;;;;;;;13.53;5.97;;;;;;;-1.22;77.71;100113.78;1702065;84;21074;-71
2024/01/06 06:51:10;;;;;;;10.20;4.97;;;;;;;-1.18;78.08;100113.89;1676538;84;21073;-71
2024/01/06 06:53:39;;;;;;;9.53;5.03;;;;;;;-1.13;78.10;100112.16;1676841;84;21073;-71
2024/01/06 06:56:08;;;;;;;18.85;6.47;;;;;;;-1.14;77.67;100112.64;1701716;84;21712;-70
2024/01/06 06:58:36;;;;;;;33.02;8.73;;;;;;;-1.12;77.82;100113.37;1701879;84;21065;-72
2024/01/06 07:01:06;;;;;;;41.25;11.25;;;;;;;-1.13;77.91;100110.81;1701679;84;21093;-69
2024/01/06 07:03:35;;;;;;;18.45;7.03;;;;;;;-1.15;77.88;100113.62;1701691;83;21038;-72
2024/01/06 07:06:05;;;;;;;16.17;7.28;;;;;;;-1.15;78.06;100110.94;1689294;85;21060;-71
2024/01/06 07:08:33;;;;;;;11.90;5.22;;;;;;;-1.14;78.21;100123.39;1702017;84;21030;-69
2024/01/06 07:11:02;;;;;;;22.20;8.13;;;;;;;-1.11;78.45;100124.48;1689158;84;21115;-71
2024/01/06 07:13:31;;;;;;;25.23;8.10;;;;;;;-1.07;78.50;100131.80;1701723;84;20998;-71
2024/01/06 07:16:00;;;;;;;14.47;5.65;;;;;;;-1.04;78.72;100133.73;1689419;85;21052;-70
2024/01/06 07:18:30;;;;;;;23.57;8.90;;;;;;;-1.01;78.75;100136.66;1701299;84;21026;-70
2024/01/06 07:20:59;;;;;;;17.25;6.22;;;;;;;-1.00;78.86;100141.89;1701728;84;21082;-70
2024/01/06 07:23:27;;;;;;;13.25;5.92;;;;;;;-1.00;78.75;100135.17;1689245;85;21080;-70
2024/01/06 07:25:56;;;;;;;9.65;4.70;;;;;;;-0.99;78.86;100136.88;1701783;83;21540;-71
2024/01/06 07:28:25;;;;;;;8.10;4.25;;;;;;;-0.97;79.00;100149.70;1689670;84;21040;-71
2024/01/06 07:30:54;;;;;;;9.93;5.35;;;;;;;-0.94;79.11;100143.70;1701846;84;21006;-72
2024/01/06 07:33:24;;;;;;;10.75;4.55;;;;;;;-0.90;79.40;100143.31;1689275;85;21024;-71
2024/01/06 07:35:53;;;;;;;12.60;4.30;;;;;;;-0.87;79.39;100145.73;1701617;84;21038;-72
2024/01/06 07:38:22;;;;;;;8.10;3.90;;;;;;;-0.86;79.37;100142.06;1689183;85;21738;-72
2024/01/06 07:40:51;;;;;;;11.83;4.40;;;;;;;-0.86;79.54;100138.03;1701942;84;21002;-71
2024/01/06 07:43:20;;;;;;;10.95;4.70;;;;;;;-0.83;79.68;100138.27;1689265;85;21496;-70
2024/01/06 07:45:49;;;;;;;12.47;5.03;;;;;;;-0.81;79.71;100136.30;1701873;84;21045;-72
2024/01/06 07:48:17;;;;;;;11.75;5.45;;;;;;;-0.80;79.34;100124.55;1689283;84;21488;-71
2024/01/06 07:50:47;;;;;;;10.35;5.33;;;;;;;-0.79;79.58;100124.91;1701614;83;21030;-71
2024/01/06 07:53:16;;;;;;;18.27;5.53;;;;;;;-0.76;79.69;100124.64;1689287;85;21004;-73
2024/01/06 07:55:45;;;;;;;13.10;5.20;;;;;;;-0.73;79.75;100129.76;1701852;84;21073;-70
2024/01/06 07:58:14;;;;;;;11.33;5.62;;;;;;;-0.71;79.46;100119.72;1689317;84;21095;-70
2024/01/06 08:00:43;;;;;;;16.35;6.30;;;;;;;-0.69;79.64;100115.06;1701808;83;21030;-71
2024/01/06 08:03:12;;;;;;;13.85;6.72;;;;;;;-0.65;79.66;100120.08;1689423;84;21334;-71
2024/01/06 08:05:41;;;;;;;17.35;7.03;;;;;;;-0.60;79.91;100121.02;1701644;84;21085;-71
2024/01/06 08:08:12;;;;;;;16.30;6.58;;;;;;;-0.57;79.71;100112.68;1664203;85;21577;-71
2024/01/06 08:10:41;;;;;;;13.62;6.30;;;;;;;-0.55;79.59;100108.02;1701910;84;21041;-71
2024/01/06 08:13:10;;;;;;;14.73;6.25;;;;;;;-0.54;79.77;100115.10;1689178;85;21092;-72
2024/01/06 08:15:38;;;;;;;17.60;7.05;;;;;;;-0.51;80.05;100117.52;1701701;84;21099;-72
2024/01/06 08:18:08;;;;;;;12.88;6.92;;;;;;;-0.48;79.96;100107.84;1690577;85;21123;-71
2024/01/06 08:20:37;;;;;;;15.53;5.62;;;;;;;-0.45;79.96;100111.61;1701847;84;21046;-72
2024/01/06 08:23:06;;;;;;;13.08;5.70;;;;;;;-0.41;80.12;100113.04;1689351;84;21012;-72
2024/01/06 08:25:36;;;;;;;11.40;6.03;;;;;;;-0.38;80.34;100110.57;1701838;84;21014;-73
2024/01/06 08:28:06;;;;;;;16.32;6.00;;;;;;;-0.35;80.30;100113.84;1689131;84;21519;-72
2024/01/06 08:30:35;;;;;;;14.10;5.83;;;;;;;-0.33;80.32;100117.75;1676186;84;21010;-72
2024/01/06 08:33:04;;;;;;;11.38;5.70;;;;;;;-0.33;80.15;100098.41;1701784;84;21042;-70
2024/01/06 08:35:35;;;;;;;11.40;5.85;;;;;;;-0.30;80.42;100116.62;1701891;82;21495;-72
2024/01/06 08:38:04;;;;;;;11.22;5.45;;;;;;;-0.29;80.45;100125.91;1702386;84;21045;-73
2024/01/06 08:40:34;;;;;;;10.48;5.30;;;;;;;-0.27;80.48;100132.51;1702113;84;21030;-72
2024/01/06 08:43:03;;;;;;;11.60;5.20;;;;;;;-0.26;80.45;100122.09;1678823;84;21101;-72
2024/01/06 08:45:33;;;;;;;15.60;5.62;;;;;;;-0.25;80.39;100113.89;1702371;83;21014;-72
2024/01/06 08:48:02;;;;;;;11.85;5.62;;;;;;;-0.25;80.38;100125.14;1702313;84;21499;-71
2024/01/06 08:50:31;;;;;;;11.38;5.62;;;;;;;-0.26;80.45;100116.22;1702284;83;21512;-71
2024/01/06 08:53:00;;;;;;;11.10;6.08;;;;;;;-0.24;80.53;100114.73;1702183;84;21033;-72
2024/01/06 08:55:30;;;;;;;11.57;6.17;;;;;;;-0.23;80.74;100109.71;1702205;84;21535;-71
2024/01/06 08:57:59;;;;;;;11.60;5.60;;;;;;;-0.19;80.85;100108.45;1709919;83;21122;-73
2024/01/06 09:00:28;;;;;;;13.78;6.00;;;;;;;-0.17;80.82;100107.33;1699110;83;21098;-74
2024/01/06 09:02:57;;;;;;;15.10;6.58;;;;;;;-0.16;80.69;100111.72;1674779;84;21060;-75
2024/01/06 09:05:26;;;;;;;12.33;6.30;;;;;;;-0.08;81.55;100112.39;1702042;83;21080;-77
2024/01/06 09:07:55;;;;;;;13.25;6.70;;;;;;;0.01;81.71;100117.47;1700266;83;21132;-77
2024/01/06 09:10:24;;;;;;;16.00;7.87;;;;;;;0.02;81.44;100106.56;1698857;84;21068;-77
2024/01/06 09:12:53;;;;;;;13.22;6.65;;;;;;;0.05;81.54;100102.74;1706519;84;21038;-76
2024/01/06 09:15:21;;;;;;;13.05;6.47;;;;;;;0.07;81.54;100098.92;1706316;84;21042;-76
2024/01/06 09:17:50;;;;;;;12.03;6.22;;;;;;;0.07;81.18;100088.15;1698684;83;21050;-74
2024/01/06 09:20:22;;;;;;;13.93;7.10;;;;;;;0.06;80.78;100090.48;1699212;84;21058;-75
2024/01/06 09:22:49;;;;;;;12.13;6.92;;;;;;;0.08;80.92;100095.24;1699503;84;21113;-76
2024/01/06 09:25:18;;;;;;;14.00;7.22;;;;;;;0.11;81.03;100100.84;1699322;84;21461;-76
2024/01/06 09:27:46;;;;;;;14.90;6.95;;;;;;;0.13;81.10;100095.67;1695644;83;21086;-77
2024/01/06 09:30:16;;;;;;;14.20;7.08;;;;;;;0.17;81.28;100078.24;1707005;84;21050;-77
2024/01/06 09:32:44;;;;;;;16.25;7.30;;;;;;;0.19;81.41;100068.18;1677511;84;21102;-74
2024/01/06 09:35:14;;;;;;;14.28;6.83;;;;;;;0.22;81.99;100082.72;1672307;84;21149;-75
2024/01/06 09:37:43;;;;;;;12.10;7.05;;;;;;;0.29;82.28;100084.36;1668711;86;21031;-75
2024/01/06 09:40:14;;;;;;;11.43;6.65;;;;;;;0.31;82.31;100080.53;1668510;86;21133;-74
2024/01/06 09:42:43;;;;;;;14.03;7.00;;;;;;;0.35;82.28;100076.21;1668592;86;21078;-73
2024/01/06 09:45:12;;;;;;;15.13;7.35;;;;;;;0.36;82.55;100062.59;1668444;86;21104;-75
2024/01/06 09:47:41;;;;;;;15.35;7.40;;;;;;;0.38;82.62;100061.11;1668766;86;21478;-75
2024/01/06 09:50:10;;;;;;;15.13;6.55;;;;;;;0.38;82.68;100048.98;1668629;86;21054;-74
2024/01/06 09:52:44;;;;;;;12.98;7.33;;;;;;;0.34;82.15;100037.64;1668714;86;21078;-74
2024/01/06 09:55:13;;;;;;;16.52;7.83;;;;;;;0.30;82.32;100037.56;1668402;86;21288;-75
2024/01/06 09:57:42;;;;;;;14.40;6.17;;;;;;;0.30;82.73;100040.25;1639494;87;21154;-74
2024/01/06 10:00:11;;;;;;;19.37;8.10;;;;;;;0.29;82.91;100033.17;1639424;87;21115;-76
2024/01/06 10:02:40;;;;;;;16.25;7.40;;;;;;;0.36;83.83;100029.41;1668412;85;21062;-75
2024/01/06 10:05:10;;;;;;;12.88;6.47;;;;;;;0.36;83.53;100026.22;1668367;86;21091;-75
2024/01/06 10:07:47;;;;;;;25.60;9.40;;;;;;;0.35;83.29;100008.35;1622522;87;21750;-75
2024/01/06 10:10:34;;;;;;;28.73;10.78;;;;;;;0.34;83.22;100005.30;1702016;83;21519;-75
2024/01/06 10:13:04;;;;;;;38.95;12.78;;;;;;;0.29;82.90;99998.98;1678165;84;21104;-74
2024/01/06 10:15:36;;;;;;;41.35;12.73;;;;;;;0.24;82.86;100002.61;1702120;84;21049;-74
2024/01/06 10:18:06;;;;;;;41.35;14.13;;;;;;;0.24;83.02;100006.65;1702083;84;21046;-75
2024/01/06 10:20:35;;;;;;;36.50;11.65;;;;;;;0.25;83.25;99998.92;1702198;83;21450;-72
2024/01/06 10:23:09;;;;;;;30.65;11.30;;;;;;;0.26;83.55;99996.58;1701991;84;21017;-73
2024/01/06 10:25:37;;;;;;;35.68;11.85;;;;;;;0.28;83.71;100004.52;1702275;84;21473;-75
2024/01/06 10:28:06;;;;;;;56.23;17.20;;;;;;;0.29;83.57;100004.88;1702001;84;21515;-74
2024/01/06 10:30:37;;;;;;;26.80;11.05;;;;;;;0.30;83.82;100006.58;1702090;83;21041;-74
2024/01/06 10:33:10;;;;;;;16.32;7.60;;;;;;;0.31;84.01;100001.05;1656719;84;21072;-72
2024/01/06 10:35:40;;;;;;;16.05;7.62;;;;;;;0.34;83.97;100006.65;1714268;81;21511;-74
2024/01/06 10:38:10;;;;;;;20.45;9.03;;;;;;;0.32;83.89;100005.94;1749775;82;21023;-75
2024/01/06 10:40:39;;;;;;;19.35;8.25;;;;;;;0.31;83.78;99998.84;1749702;82;21031;-75
2024/01/06 10:43:08;;;;;;;16.05;7.97;;;;;;;0.29;83.89;99995.45;1749629;81;21070;-75
2024/01/06 10:45:37;;;;;;;14.38;6.70;;;;;;;0.29;84.03;99987.36;1749576;81;21463;-74
2024/01/06 10:48:07;;;;;;;12.80;6.60;;;;;;;0.30;84.19;99985.87;1749547;82;21090;-74
2024/01/06 10:50:36;;;;;;;13.58;6.00;;;;;;;0.31;84.15;99976.80;1749961;82;21046;-75
2024/01/06 10:53:06;;;;;;;14.15;6.33;;;;;;;0.32;84.14;99962.83;1749511;81;21082;-74
2024/01/06 10:55:37;;;;;;;15.83;6.42;;;;;;;0.35;84.26;99965.73;1749799;81;21050;-75
2024/01/06 10:58:07;;;;;;;14.23;7.00;;;;;;;0.35;84.25;99966.59;1749522;82;21062;-73
2024/01/06 11:00:36;;;;;;;13.18;6.80;;;;;;;0.35;84.15;99959.84;1724964;82;21042;-74
2024/01/06 11:03:05;;;;;;;17.20;7.37;;;;;;;0.37;84.23;99961.05;1749644;81;21145;-75
2024/01/06 11:05:35;;;;;;;20.52;9.65;;;;;;;0.39;84.37;99953.67;1749937;81;21509;-75
2024/01/06 11:08:06;;;;;;;14.85;7.40;;;;;;;0.40;84.49;99956.22;1715260;81;21033;-73
2024/01/06 11:10:36;;;;;;;17.10;8.08;;;;;;;0.44;84.62;99942.81;1691212;85;21053;-72
2024/01/06 11:13:20;;;;;;;14.90;7.85;;;;;;;0.45;84.71;99933.73;1696384;84;21103;-74
2024/01/06 11:15:51;;;;;;;13.72;6.65;;;;;;;0.48;84.78;99933.95;1671898;85;21519;-75
2024/01/06 11:18:40;;;;;;;11.55;6.30;;;;;;;0.50;84.72;99936.00;1671990;85;21514;-71
2024/01/06 11:21:21;;;;;;;11.70;6.45;;;;;;;0.50;84.68;99933.30;1671837;85;21046;-75
2024/01/06 11:24:20;;;;;;;15.13;7.33;;;;;;;0.49;84.74;99938.34;1671969;86;21529;-74
2024/01/06 11:26:51;;;;;;;12.05;6.50;;;;;;;0.49;84.88;99935.64;1616291;89;21083;-75
2024/01/06 11:29:20;;;;;;;12.10;6.62;;;;;;;0.49;84.86;99941.03;1661257;85;21028;-71